sensor_id;sensor_type;location;lat;lon;timestamp;pressure;altitude;pressure_sealevel;temperature;humidity
23241;BME280;11789;53.482;9.862;2023-12-28T00:01:22;100650.78;;;6.38;100.00
23241;BME280;11789;53.482;9.862;2023-12-28T00:03:48;100658.47;;;6.35;100.00
23241;BME280;11789;53.482;9.862;2023-12-28T00:06:14;100656.75;;;6.35;100.00
23241;BME280;11789;53.482;9.862;2023-12-28T00:08:40;100649.91;;;6.34;100.00
23241;BME280;11789;53.482;9.862;2023-12-28T00:11:06;100655.03;;;6.36;100.00
23241;BME280;11789;53.482;9.862;2023-12-28T00:13:31;100647.34;;;6.36;100.00
23241;BME280;11789;53.482;9.862;2023-12-28T00:15:57;100649.84;;;6.31;100.00
23241;BME280;11789;53.482;9.862;2023-12-28T00:18:22;100658.34;;;6.27;100.00
23241;BME280;11789;53.482;9.862;2023-12-28T00:20:48;100663.44;;;6.24;100.00
23241;BME280;11789;53.482;9.862;2023-12-28T00:23:13;100659.25;;;6.32;100.00
23241;BME280;11789;53.482;9.862;2023-12-28T00:25:39;100660.13;;;6.31;100.00
23241;BME280;11789;53.482;9.862;2023-12-28T00:28:04;100661.81;;;6.31;100.00
23241;BME280;11789;53.482;9.862;2023-12-28T00:30:30;100669.47;;;6.28;100.00
23241;BME280;11789;53.482;9.862;2023-12-28T00:32:55;100667.75;;;6.28;100.00
23241;BME280;11789;53.482;9.862;2023-12-28T00:35:21;100666.81;;;6.20;100.00
23241;BME280;11789;53.482;9.862;2023-12-28T00:37:46;100670.09;;;6.11;100.00
23241;BME280;11789;53.482;9.862;2023-12-28T00:40:11;100682.00;;;6.05;100.00
23241;BME280;11789;53.482;9.862;2023-12-28T00:42:37;100679.28;;;5.97;100.00
23241;BME280;11789;53.482;9.862;2023-12-28T00:45:05;100687.03;;;5.98;100.00
23241;BME280;11789;53.482;9.862;2023-12-28T00:47:30;100682.69;;;5.94;100.00
23241;BME280;11789;53.482;9.862;2023-12-28T00:49:56;100674.97;;;5.93;100.00
23241;BME280;11789;53.482;9.862;2023-12-28T00:52:21;100678.31;;;5.90;100.00
23241;BME280;11789;53.482;9.862;2023-12-28T00:54:47;100673.94;;;5.83;100.00
23241;BME280;11789;53.482;9.862;2023-12-28T00:57:12;100678.22;;;5.84;100.00
23241;BME280;11789;53.482;9.862;2023-12-28T00:59:37;100679.09;;;5.86;100.00
23241;BME280;11789;53.482;9.862;2023-12-28T01:02:03;100673.12;;;5.87;100.00
23241;BME280;11789;53.482;9.862;2023-12-28T01:04:28;100671.41;;;5.86;100.00
23241;BME280;11789;53.482;9.862;2023-12-28T01:06:54;100665.41;;;5.86;100.00
23241;BME280;11789;53.482;9.862;2023-12-28T01:09:19;100676.63;;;5.91;100.00
23241;BME280;11789;53.482;9.862;2023-12-28T01:11:46;100668.09;;;5.92;100.00
23241;BME280;11789;53.482;9.862;2023-12-28T01:14:11;100668.91;;;5.89;100.00
23241;BME280;11789;53.482;9.862;2023-12-28T01:16:37;100672.38;;;5.91;100.00
23241;BME280;11789;53.482;9.862;2023-12-28T01:19:05;100678.31;;;5.90;100.00
23241;BME280;11789;53.482;9.862;2023-12-28T01:21:30;100693.72;;;5.90;100.00
23241;BME280;11789;53.482;9.862;2023-12-28T01:23:56;100695.53;;;5.94;100.00
23241;BME280;11789;53.482;9.862;2023-12-28T01:26:21;100687.00;;;5.97;100.00
23241;BME280;11789;53.482;9.862;2023-12-28T01:28:47;100677.63;;;5.99;100.00
23241;BME280;11789;53.482;9.862;2023-12-28T01:31:12;100677.63;;;5.99;100.00
23241;BME280;11789;53.482;9.862;2023-12-28T01:33:38;100690.41;;;5.97;100.00
23241;BME280;11789;53.482;9.862;2023-12-28T01:36:17;100716.13;;;5.99;100.00
23241;BME280;11789;53.482;9.862;2023-12-28T01:38:43;100688.78;;;6.01;100.00
23241;BME280;11789;53.482;9.862;2023-12-28T01:41:09;100716.13;;;6.01;100.00
23241;BME280;11789;53.482;9.862;2023-12-28T01:43:34;100699.97;;;6.06;100.00
23241;BME280;11789;53.482;9.862;2023-12-28T01:46:00;100701.66;;;6.04;100.00
23241;BME280;11789;53.482;9.862;2023-12-28T01:48:26;100705.19;;;6.12;100.00
23241;BME280;11789;53.482;9.862;2023-12-28T01:50:52;100706.03;;;6.10;100.00
23241;BME280;11789;53.482;9.862;2023-12-28T01:53:18;100717.22;;;6.16;100.00
23241;BME280;11789;53.482;9.862;2023-12-28T01:55:43;100698.41;;;6.17;100.00
23241;BME280;11789;53.482;9.862;2023-12-28T01:58:10;100714.75;;;6.22;100.00
23241;BME280;11789;53.482;9.862;2023-12-28T02:00:36;100713.94;;;6.23;100.00
23241;BME280;11789;53.482;9.862;2023-12-28T02:03:05;100730.19;;;6.24;100.00
23241;BME280;11789;53.482;9.862;2023-12-28T02:05:32;100719.94;;;6.24;100.00
23241;BME280;11789;53.482;9.862;2023-12-28T02:07:58;100711.41;;;6.28;100.00
23241;BME280;11789;53.482;9.862;2023-12-28T02:10:23;100718.31;;;6.32;100.00
23241;BME280;11789;53.482;9.862;2023-12-28T02:12:49;100728.63;;;6.35;100.00
23241;BME280;11789;53.482;9.862;2023-12-28T02:15:15;100726.16;;;6.41;100.00
23241;BME280;11789;53.482;9.862;2023-12-28T02:17:58;100716.81;;;6.48;100.00
23241;BME280;11789;53.482;9.862;2023-12-28T02:20:25;100730.50;;;6.45;100.00
23241;BME280;11789;53.482;9.862;2023-12-28T02:22:53;100733.84;;;6.41;100.00
23241;BME280;11789;53.482;9.862;2023-12-28T02:25:18;100735.56;;;6.42;100.00
23241;BME280;11789;53.482;9.862;2023-12-28T02:27:45;100730.50;;;6.45;100.00
23241;BME280;11789;53.482;9.862;2023-12-28T02:30:13;100739.13;;;6.50;100.00
23241;BME280;11789;53.482;9.862;2023-12-28T02:35:33;100748.53;;;6.52;100.00
23241;BME280;11789;53.482;9.862;2023-12-28T02:38:20;100741.69;;;6.49;100.00
23241;BME280;11789;53.482;9.862;2023-12-28T02:40:47;100748.56;;;6.53;100.00
23241;BME280;11789;53.482;9.862;2023-12-28T02:43:13;100738.34;;;6.56;100.00
23241;BME280;11789;53.482;9.862;2023-12-28T02:45:39;100727.22;;;6.57;100.00
23241;BME280;11789;53.482;9.862;2023-12-28T02:48:05;100734.91;;;6.56;100.00
23241;BME280;11789;53.482;9.862;2023-12-28T02:50:31;100724.56;;;6.49;100.00
23241;BME280;11789;53.482;9.862;2023-12-28T02:52:57;100737.47;;;6.54;100.00
23241;BME280;11789;53.482;9.862;2023-12-28T02:55:23;100732.28;;;6.49;100.00
23241;BME280;11789;53.482;9.862;2023-12-28T02:57:50;100738.22;;;6.48;100.00
23241;BME280;11789;53.482;9.862;2023-12-28T03:00:16;100735.63;;;6.44;100.00
23241;BME280;11789;53.482;9.862;2023-12-28T03:02:42;100733.81;;;6.38;100.00
23241;BME280;11789;53.482;9.862;2023-12-28T03:05:07;100745.84;;;6.41;100.00
23241;BME280;11789;53.482;9.862;2023-12-28T03:07:34;100739.88;;;6.43;100.00
23241;BME280;11789;53.482;9.862;2023-12-28T03:10:00;100727.94;;;6.45;100.00
23241;BME280;11789;53.482;9.862;2023-12-28T03:12:25;100734.00;;;6.50;100.00
23241;BME280;11789;53.482;9.862;2023-12-28T03:14:51;100736.56;;;6.50;100.00
23241;BME280;11789;53.482;9.862;2023-12-28T03:17:16;100740.78;;;6.48;100.00
23241;BME280;11789;53.482;9.862;2023-12-28T03:19:42;100730.59;;;6.53;100.00
23241;BME280;11789;53.482;9.862;2023-12-28T03:22:07;100729.72;;;6.53;100.00
23241;BME280;11789;53.482;9.862;2023-12-28T03:24:33;100728.00;;;6.53;100.00
23241;BME280;11789;53.482;9.862;2023-12-28T03:26:58;100733.19;;;6.55;100.00
23241;BME280;11789;53.482;9.862;2023-12-28T03:29:24;100733.94;;;6.47;100.00
23241;BME280;11789;53.482;9.862;2023-12-28T03:31:50;100733.91;;;6.44;100.00
23241;BME280;11789;53.482;9.862;2023-12-28T03:34:15;100739.91;;;6.45;100.00
23241;BME280;11789;53.482;9.862;2023-12-28T03:36:41;100733.00;;;6.41;100.00
23241;BME280;11789;53.482;9.862;2023-12-28T03:39:08;100727.03;;;6.43;100.00
23241;BME280;11789;53.482;9.862;2023-12-28T03:41:33;100739.06;;;6.46;100.00
23241;BME280;11789;53.482;9.862;2023-12-28T03:43:59;100738.22;;;6.48;100.00
23241;BME280;11789;53.482;9.862;2023-12-28T03:46:24;100738.22;;;6.48;100.00
23241;BME280;11789;53.482;9.862;2023-12-28T03:48:50;100745.13;;;6.53;100.00
23241;BME280;11789;53.482;9.862;2023-12-28T03:51:16;100746.84;;;6.52;100.00
23241;BME280;11789;53.482;9.862;2023-12-28T03:53:42;100739.94;;;6.48;100.00
23241;BME280;11789;53.482;9.862;2023-12-28T03:56:08;100743.34;;;6.45;100.00
23241;BME280;11789;53.482;9.862;2023-12-28T03:58:42;100738.97;;;6.40;100.00
23241;BME280;11789;53.482;9.862;2023-12-28T04:01:09;100750.09;;;6.40;100.00
23241;BME280;11789;53.482;9.862;2023-12-28T04:03:35;100733.88;;;6.43;100.00
23241;BME280;11789;53.482;9.862;2023-12-28T04:06:00;100733.91;;;6.46;100.00
23241;BME280;11789;53.482;9.862;2023-12-28T04:08:25;100733.97;;;6.49;100.00
23241;BME280;11789;53.482;9.862;2023-12-28T04:10:51;100736.53;;;6.49;100.00
23241;BME280;11789;53.482;9.862;2023-12-28T04:13:16;100745.94;;;6.48;100.00
23241;BME280;11789;53.482;9.862;2023-12-28T04:15:42;100746.81;;;6.49;100.00
23241;BME280;11789;53.482;9.862;2023-12-28T04:18:08;100723.66;;;6.47;100.00
23241;BME280;11789;53.482;9.862;2023-12-28T04:20:33;100722.72;;;6.41;100.00
23241;BME280;11789;53.482;9.862;2023-12-28T04:22:59;100725.31;;;6.42;100.00
23241;BME280;11789;53.482;9.862;2023-12-28T04:25:24;100724.56;;;6.49;100.00
23241;BME280;11789;53.482;9.862;2023-12-28T04:27:50;100722.78;;;6.45;100.00
23241;BME280;11789;53.482;9.862;2023-12-28T04:30:15;100714.22;;;6.45;100.00
23241;BME280;11789;53.482;9.862;2023-12-28T04:32:41;100715.09;;;6.45;100.00
23241;BME280;11789;53.482;9.862;2023-12-28T04:35:06;100722.66;;;6.38;100.00
23241;BME280;11789;53.482;9.862;2023-12-28T04:37:32;100724.41;;;6.39;100.00
23241;BME280;11789;53.482;9.862;2023-12-28T04:39:58;100716.75;;;6.43;100.00
23241;BME280;11789;53.482;9.862;2023-12-28T04:42:23;100717.53;;;6.38;100.00
23241;BME280;11789;53.482;9.862;2023-12-28T04:44:49;100707.19;;;6.33;100.00
23241;BME280;11789;53.482;9.862;2023-12-28T04:47:14;100720.09;;;6.36;100.00
23241;BME280;11789;53.482;9.862;2023-12-28T04:49:40;100710.69;;;6.37;100.00
23241;BME280;11789;53.482;9.862;2023-12-28T04:52:05;100712.38;;;6.36;100.00
23241;BME280;11789;53.482;9.862;2023-12-28T04:54:31;100728.63;;;6.35;100.00
23241;BME280;11789;53.482;9.862;2023-12-28T04:56:58;100732.06;;;6.34;100.00
23241;BME280;11789;53.482;9.862;2023-12-28T04:59:23;100737.12;;;6.31;100.00
23241;BME280;11789;53.482;9.862;2023-12-28T05:01:49;100724.34;;;6.34;100.00
23241;BME280;11789;53.482;9.862;2023-12-28T05:04:14;100734.63;;;6.34;100.00
23241;BME280;11789;53.482;9.862;2023-12-28T05:06:40;100732.94;;;6.38;100.00
23241;BME280;11789;53.482;9.862;2023-12-28T05:09:05;100730.31;;;6.33;100.00
23241;BME280;11789;53.482;9.862;2023-12-28T05:11:31;100719.22;;;6.34;100.00
23241;BME280;11789;53.482;9.862;2023-12-28T05:13:56;100727.78;;;6.36;100.00
23241;BME280;11789;53.482;9.862;2023-12-28T05:16:22;100721.81;;;6.37;100.00
23241;BME280;11789;53.482;9.862;2023-12-28T05:18:47;100721.03;;;6.43;100.00
23241;BME280;11789;53.482;9.862;2023-12-28T05:21:13;100721.94;;;6.46;100.00
23241;BME280;11789;53.482;9.862;2023-12-28T05:23:39;100717.66;;;6.47;100.00
23241;BME280;11789;53.482;9.862;2023-12-28T05:26:04;100724.50;;;6.45;100.00
23241;BME280;11789;53.482;9.862;2023-12-28T05:28:30;100713.31;;;6.41;100.00
23241;BME280;11789;53.482;9.862;2023-12-28T05:30:55;100728.72;;;6.43;100.00
23241;BME280;11789;53.482;9.862;2023-12-28T05:33:21;100739.97;;;6.51;100.00
23241;BME280;11789;53.482;9.862;2023-12-28T05:35:48;100747.69;;;6.53;100.00
23241;BME280;11789;53.482;9.862;2023-12-28T05:38:13;100745.19;;;6.56;100.00
23241;BME280;11789;53.482;9.862;2023-12-28T05:40:38;100733.28;;;6.62;100.00
23241;BME280;11789;53.482;9.862;2023-12-28T05:43:04;100733.34;;;6.67;100.00
23241;BME280;11789;53.482;9.862;2023-12-28T05:45:29;100725.66;;;6.68;100.00
23241;BME280;11789;53.482;9.862;2023-12-28T05:47:55;100723.12;;;6.71;100.00
23241;BME280;11789;53.482;9.862;2023-12-28T05:50:20;100729.94;;;6.68;100.00
23241;BME280;11789;53.482;9.862;2023-12-28T05:52:46;100740.25;;;6.69;100.00
23241;BME280;11789;53.482;9.862;2023-12-28T05:55:11;100742.78;;;6.68;100.00
23241;BME280;11789;53.482;9.862;2023-12-28T05:57:37;100746.19;;;6.67;100.00
23241;BME280;11789;53.482;9.862;2023-12-28T06:00:02;100749.63;;;6.67;100.00
23241;BME280;11789;53.482;9.862;2023-12-28T06:02:29;100753.03;;;6.66;100.00
23241;BME280;11789;53.482;9.862;2023-12-28T06:04:55;100749.63;;;6.69;100.00
23241;BME280;11789;53.482;9.862;2023-12-28T06:07:20;100746.31;;;6.76;100.00
23241;BME280;11789;53.482;9.862;2023-12-28T06:09:46;100744.66;;;6.81;100.00
23241;BME280;11789;53.482;9.862;2023-12-28T06:12:11;100751.66;;;6.91;100.00
23241;BME280;11789;53.482;9.862;2023-12-28T06:14:37;100752.56;;;6.98;100.00
23241;BME280;11789;53.482;9.862;2023-12-28T06:17:03;100747.47;;;6.99;100.00
23241;BME280;11789;53.482;9.862;2023-12-28T06:19:28;100754.34;;;7.00;100.00
23241;BME280;11789;53.482;9.862;2023-12-28T06:21:54;100756.06;;;7.01;100.00
23241;BME280;11789;53.482;9.862;2023-12-28T06:24:19;100743.31;;;7.11;100.00
23241;BME280;11789;53.482;9.862;2023-12-28T06:26:45;100739.94;;;7.15;100.00
23241;BME280;11789;53.482;9.862;2023-12-28T06:29:10;100743.41;;;7.20;100.00
23241;BME280;11789;53.482;9.862;2023-12-28T06:31:36;100733.16;;;7.23;100.00
23241;BME280;11789;53.482;9.862;2023-12-28T06:34:05;100747.72;;;7.24;100.00
23241;BME280;11789;53.482;9.862;2023-12-28T06:36:32;100735.78;;;7.26;100.00
23241;BME280;11789;53.482;9.862;2023-12-28T06:38:58;100737.50;;;7.28;100.00
23241;BME280;11789;53.482;9.862;2023-12-28T06:41:24;100737.53;;;7.30;100.00
23241;BME280;11789;53.482;9.862;2023-12-28T06:43:50;100746.13;;;7.34;100.00
23241;BME280;11789;53.482;9.862;2023-12-28T06:46:16;100750.44;;;7.36;100.00
23241;BME280;11789;53.482;9.862;2023-12-28T06:48:42;100737.69;;;7.45;100.00
23241;BME280;11789;53.482;9.862;2023-12-28T06:51:09;100736.84;;;7.49;100.00
23241;BME280;11789;53.482;9.862;2023-12-28T06:53:35;100741.16;;;7.52;100.00
23241;BME280;11789;53.482;9.862;2023-12-28T06:56:00;100734.31;;;7.52;100.00
23241;BME280;11789;53.482;9.862;2023-12-28T06:58:26;100727.41;;;7.50;100.00
23241;BME280;11789;53.482;9.862;2023-12-28T07:00:51;100734.31;;;7.52;100.00
23241;BME280;11789;53.482;9.862;2023-12-28T07:03:17;100740.31;;;7.54;100.00
23241;BME280;11789;53.482;9.862;2023-12-28T07:05:42;100739.50;;;7.60;100.00
23241;BME280;11789;53.482;9.862;2023-12-28T07:08:08;100744.66;;;7.60;100.00
23241;BME280;11789;53.482;9.862;2023-12-28T07:10:33;100748.13;;;7.64;100.00
23241;BME280;11789;53.482;9.862;2023-12-28T07:12:59;100732.72;;;7.67;100.00
23241;BME280;11789;53.482;9.862;2023-12-28T07:15:24;100711.34;;;7.71;100.00
23241;BME280;11789;53.482;9.862;2023-12-28T07:17:50;100704.44;;;7.70;100.00
23241;BME280;11789;53.482;9.862;2023-12-28T07:20:16;100704.47;;;7.71;100.00
23241;BME280;11789;53.482;9.862;2023-12-28T07:22:41;100704.44;;;7.67;100.00
23241;BME280;11789;53.482;9.862;2023-12-28T07:25:07;100721.63;;;7.71;100.00
23241;BME280;11789;53.482;9.862;2023-12-28T07:27:36;100716.44;;;7.66;100.00
23241;BME280;11789;53.482;9.862;2023-12-28T07:30:02;100735.31;;;7.68;100.00
23241;BME280;11789;53.482;9.862;2023-12-28T07:32:28;100717.31;;;7.68;100.00
23241;BME280;11789;53.482;9.862;2023-12-28T07:34:54;100725.84;;;7.64;100.00
23241;BME280;11789;53.482;9.862;2023-12-28T07:37:20;100735.28;;;7.64;100.00
23241;BME280;11789;53.482;9.862;2023-12-28T07:39:46;100734.41;;;7.62;100.00
23241;BME280;11789;53.482;9.862;2023-12-28T07:42:12;100735.25;;;7.61;100.00
23241;BME280;11789;53.482;9.862;2023-12-28T07:44:38;100730.97;;;7.64;100.00
23241;BME280;11789;53.482;9.862;2023-12-28T07:47:04;100718.16;;;7.66;100.00
23241;BME280;11789;53.482;9.862;2023-12-28T07:49:30;100709.62;;;7.71;100.00
23241;BME280;11789;53.482;9.862;2023-12-28T07:51:56;100712.25;;;7.79;100.00
23241;BME280;11789;53.482;9.862;2023-12-28T07:54:22;100729.44;;;7.85;100.00
23241;BME280;11789;53.482;9.862;2023-12-28T07:56:47;100729.41;;;7.77;100.00
23241;BME280;11789;53.482;9.862;2023-12-28T07:59:13;100727.69;;;7.77;100.00
23241;BME280;11789;53.482;9.862;2023-12-28T08:01:38;100735.41;;;7.79;100.00
23241;BME280;11789;53.482;9.862;2023-12-28T08:04:04;100737.12;;;7.77;100.00
23241;BME280;11789;53.482;9.862;2023-12-28T08:06:30;100729.34;;;7.75;100.00
23241;BME280;11789;53.482;9.862;2023-12-28T08:08:58;100733.69;;;7.78;100.00
23241;BME280;11789;53.482;9.862;2023-12-28T08:11:27;100732.06;;;7.88;100.00
23241;BME280;11789;53.482;9.862;2023-12-28T08:13:53;100728.66;;;7.93;100.00
23241;BME280;11789;53.482;9.862;2023-12-28T08:16:19;100726.16;;;8.04;100.00
23241;BME280;11789;53.482;9.862;2023-12-28T08:18:44;100726.16;;;8.05;100.00
23241;BME280;11789;53.482;9.862;2023-12-28T08:21:10;100716.75;;;8.06;100.00
23241;BME280;11789;53.482;9.862;2023-12-28T08:23:35;100718.47;;;8.09;100.00
23241;BME280;11789;53.482;9.862;2023-12-28T08:26:01;100717.66;;;8.16;100.00
23241;BME280;11789;53.482;9.862;2023-12-28T08:28:28;100723.69;;;8.19;100.00
23241;BME280;11789;53.482;9.862;2023-12-28T08:30:55;100717.69;;;8.19;100.00
23241;BME280;11789;53.482;9.862;2023-12-28T08:33:21;100716.78;;;8.14;100.00
23241;BME280;11789;53.482;9.862;2023-12-28T08:35:46;100718.53;;;8.18;100.00
23241;BME280;11789;53.482;9.862;2023-12-28T08:38:11;100726.28;;;8.19;100.00
23241;BME280;11789;53.482;9.862;2023-12-28T08:40:37;100726.28;;;8.16;100.00
23241;BME280;11789;53.482;9.862;2023-12-28T08:43:02;100728.03;;;8.23;100.00
23241;BME280;11789;53.482;9.862;2023-12-28T08:45:28;100720.31;;;8.28;100.00
23241;BME280;11789;53.482;9.862;2023-12-28T08:47:53;100731.53;;;8.35;100.00
23241;BME280;11789;53.482;9.862;2023-12-28T08:50:19;100725.50;;;8.34;100.00
23241;BME280;11789;53.482;9.862;2023-12-28T08:52:44;100725.50;;;8.34;100.00
23241;BME280;11789;53.482;9.862;2023-12-28T08:55:10;100710.91;;;8.35;100.00
23241;BME280;11789;53.482;9.862;2023-12-28T08:57:36;100735.03;;;8.41;100.00
23241;BME280;11789;53.482;9.862;2023-12-28T09:00:01;100742.75;;;8.38;100.00
23241;BME280;11789;53.482;9.862;2023-12-28T09:02:28;100744.47;;;8.39;100.00
23241;BME280;11789;53.482;9.862;2023-12-28T09:04:54;100726.47;;;8.45;100.00
23241;BME280;11789;53.482;9.862;2023-12-28T09:07:19;100721.34;;;8.51;100.00
23241;BME280;11789;53.482;9.862;2023-12-28T09:09:45;100732.53;;;8.56;100.00
23241;BME280;11789;53.482;9.862;2023-12-28T09:12:11;100726.53;;;8.59;100.00
23241;BME280;11789;53.482;9.862;2023-12-28T09:14:36;100734.28;;;8.61;100.00
23241;BME280;11789;53.482;9.862;2023-12-28T09:17:02;100730.00;;;8.63;100.00
23241;BME280;11789;53.482;9.862;2023-12-28T09:19:28;100729.13;;;8.61;100.00
23241;BME280;11789;53.482;9.862;2023-12-28T09:21:53;100737.75;;;8.69;100.00
23241;BME280;11789;53.482;9.862;2023-12-28T09:24:19;100741.19;;;8.71;100.00
23241;BME280;11789;53.482;9.862;2023-12-28T09:26:44;100730.03;;;8.70;100.00
23241;BME280;11789;53.482;9.862;2023-12-28T09:29:10;100748.03;;;8.66;100.00
23241;BME280;11789;53.482;9.862;2023-12-28T09:31:35;100746.31;;;8.66;100.00
23241;BME280;11789;53.482;9.862;2023-12-28T09:34:01;100751.44;;;8.62;100.00
23241;BME280;11789;53.482;9.862;2023-12-28T09:36:26;100748.87;;;8.60;100.00
23241;BME280;11789;53.482;9.862;2023-12-28T09:38:52;100753.22;;;8.69;100.00
23241;BME280;11789;53.482;9.862;2023-12-28T09:41:19;100760.13;;;8.73;100.00
23241;BME280;11789;53.482;9.862;2023-12-28T09:43:54;100753.28;;;8.78;100.00
23241;BME280;11789;53.482;9.862;2023-12-28T09:46:24;100751.56;;;8.84;100.00
23241;BME280;11789;53.482;9.862;2023-12-28T09:48:51;100742.13;;;8.87;100.00
23241;BME280;11789;53.482;9.862;2023-12-28T09:51:19;100748.16;;;8.87;100.00
23241;BME280;11789;53.482;9.862;2023-12-28T09:53:45;100733.53;;;8.83;100.00
23241;BME280;11789;53.482;9.862;2023-12-28T09:56:12;100731.81;;;8.85;100.00
23241;BME280;11789;53.482;9.862;2023-12-28T09:58:39;100743.88;;;8.88;100.00
23241;BME280;11789;53.482;9.862;2023-12-28T10:01:06;100737.84;;;8.89;100.00
23241;BME280;11789;53.482;9.862;2023-12-28T10:03:32;100740.44;;;8.89;100.00
23241;BME280;11789;53.482;9.862;2023-12-28T10:05:58;100726.66;;;8.85;100.00
23241;BME280;11789;53.482;9.862;2023-12-28T10:08:23;100736.13;;;8.84;100.00
23241;BME280;11789;53.482;9.862;2023-12-28T10:10:49;100720.66;;;8.84;100.00
23241;BME280;11789;53.482;9.862;2023-12-28T10:13:20;100734.38;;;8.87;100.00
23241;BME280;11789;53.482;9.862;2023-12-28T10:15:47;100735.28;;;8.89;100.00
23241;BME280;11789;53.482;9.862;2023-12-28T10:18:13;100748.16;;;8.90;100.00
23241;BME280;11789;53.482;9.862;2023-12-28T10:20:38;100741.28;;;8.91;100.00
23241;BME280;11789;53.482;9.862;2023-12-28T10:23:04;100726.69;;;8.91;100.00
23241;BME280;11789;53.482;9.862;2023-12-28T10:25:31;100727.56;;;8.96;100.00
23241;BME280;11789;53.482;9.862;2023-12-28T10:27:57;100739.63;;;9.03;100.00
23241;BME280;11789;53.482;9.862;2023-12-28T10:30:23;100730.19;;;9.04;100.00
23241;BME280;11789;53.482;9.862;2023-12-28T10:32:49;100725.84;;;9.01;100.00
23241;BME280;11789;53.482;9.862;2023-12-28T10:35:15;100731.87;;;9.00;100.00
23241;BME280;11789;53.482;9.862;2023-12-28T10:37:41;100728.44;;;9.00;100.00
23241;BME280;11789;53.482;9.862;2023-12-28T10:40:07;100735.34;;;9.02;100.00
23241;BME280;11789;53.482;9.862;2023-12-28T10:45:25;100732.75;;;9.05;100.00
23241;BME280;11789;53.482;9.862;2023-12-28T10:48:11;100749.97;;;9.08;100.00
23241;BME280;11789;53.482;9.862;2023-12-28T10:50:47;100750.84;;;9.15;100.00
23241;BME280;11789;53.482;9.862;2023-12-28T10:56:25;100753.41;;;9.15;100.00
23241;BME280;11789;53.482;9.862;2023-12-28T10:59:05;100754.25;;;9.09;100.00
23241;BME280;11789;53.482;9.862;2023-12-28T11:01:37;100738.78;;;9.07;100.00
23241;BME280;11789;53.482;9.862;2023-12-28T11:04:10;100737.94;;;9.08;100.00
23241;BME280;11789;53.482;9.862;2023-12-28T11:06:39;100732.78;;;9.13;100.00
23241;BME280;11789;53.482;9.862;2023-12-28T11:09:09;100733.62;;;9.17;100.00
23241;BME280;11789;53.482;9.862;2023-12-28T11:11:36;100732.78;;;9.16;100.00
23241;BME280;11789;53.482;9.862;2023-12-28T11:14:02;100732.78;;;9.16;100.00
23241;BME280;11789;53.482;9.862;2023-12-28T11:16:29;100736.22;;;9.17;100.00
23241;BME280;11789;53.482;9.862;2023-12-28T11:18:56;100736.22;;;9.15;100.00
23241;BME280;11789;53.482;9.862;2023-12-28T11:21:23;100734.50;;;9.16;100.00
23241;BME280;11789;53.482;9.862;2023-12-28T11:23:49;100725.06;;;9.19;100.00
23241;BME280;11789;53.482;9.862;2023-12-28T11:26:21;100735.37;;;9.21;100.00
23241;BME280;11789;53.482;9.862;2023-12-28T11:28:47;100727.63;;;9.22;100.00
23241;BME280;11789;53.482;9.862;2023-12-28T11:31:17;100725.06;;;9.22;100.00
23241;BME280;11789;53.482;9.862;2023-12-28T11:33:47;100718.19;;;9.24;100.00
23241;BME280;11789;53.482;9.862;2023-12-28T11:36:34;100737.97;;;9.24;100.00
23241;BME280;11789;53.482;9.862;2023-12-28T11:39:05;100738.81;;;9.20;100.00
23241;BME280;11789;53.482;9.862;2023-12-28T11:41:32;100734.53;;;9.25;100.00
23241;BME280;11789;53.482;9.862;2023-12-28T11:44:02;100731.09;;;9.26;100.00
23241;BME280;11789;53.482;9.862;2023-12-28T11:46:29;100732.84;;;9.28;100.00
23241;BME280;11789;53.482;9.862;2023-12-28T11:49:03;100736.28;;;9.29;100.00
23241;BME280;11789;53.482;9.862;2023-12-28T11:51:29;100737.97;;;9.30;100.00
23241;BME280;11789;53.482;9.862;2023-12-28T11:53:55;100741.44;;;9.29;100.00
23241;BME280;11789;53.482;9.862;2023-12-28T11:56:21;100725.94;;;9.26;100.00
23241;BME280;11789;53.482;9.862;2023-12-28T11:58:46;100730.22;;;9.25;100.00
23241;BME280;11789;53.482;9.862;2023-12-28T12:01:13;100719.94;;;9.39;100.00
23241;BME280;11789;53.482;9.862;2023-12-28T12:03:38;100725.97;;;9.46;100.00
23241;BME280;11789;53.482;9.862;2023-12-28T12:06:04;100720.81;;;9.46;100.00
23241;BME280;11789;53.482;9.862;2023-12-28T12:08:29;100724.25;;;9.49;100.00
23241;BME280;11789;53.482;9.862;2023-12-28T12:11:02;100725.97;;;9.47;100.00
23241;BME280;11789;53.482;9.862;2023-12-28T12:13:30;100721.69;;;9.45;100.00
23241;BME280;11789;53.482;9.862;2023-12-28T12:15:56;100723.38;;;9.40;100.00
23241;BME280;11789;53.482;9.862;2023-12-28T12:18:22;100714.78;;;9.42;100.00
23241;BME280;11789;53.482;9.862;2023-12-28T12:20:48;100710.50;;;9.44;100.00
23241;BME280;11789;53.482;9.862;2023-12-28T12:23:14;100715.66;;;9.50;100.00
23241;BME280;11789;53.482;9.862;2023-12-28T12:25:40;100720.81;;;9.52;100.00
23241;BME280;11789;53.482;9.862;2023-12-28T12:28:06;100715.66;;;9.55;100.00
23241;BME280;11789;53.482;9.862;2023-12-28T12:30:32;100726.00;;;9.58;100.00
23241;BME280;11789;53.482;9.862;2023-12-28T12:32:57;100727.72;;;9.56;100.00
23241;BME280;11789;53.482;9.862;2023-12-28T12:35:23;100717.38;;;9.56;100.00
23241;BME280;11789;53.482;9.862;2023-12-28T12:37:49;100717.38;;;9.51;100.00
23241;BME280;11789;53.482;9.862;2023-12-28T12:40:17;100726.00;;;9.53;100.00
23241;BME280;11789;53.482;9.862;2023-12-28T12:42:55;100725.09;;;9.53;100.00
23241;BME280;11789;53.482;9.862;2023-12-28T12:45:21;100719.97;;;9.50;100.00
23241;BME280;11789;53.482;9.862;2023-12-28T12:47:47;100715.66;;;9.50;100.00
23241;BME280;11789;53.482;9.862;2023-12-28T12:50:13;100719.09;;;9.48;100.00
23241;BME280;11789;53.482;9.862;2023-12-28T12:52:39;100719.09;;;9.49;100.00
23241;BME280;11789;53.482;9.862;2023-12-28T12:55:05;100726.84;;;9.45;100.00